Time;durP1;ratioP1;P1;durP2;ratioP2;P2;SDS_P1;SDS_P2;PMS_P1;PMS_P2;Temp;Humidity;BMP_temperature;BMP_pressure;BME280_temperature;BME280_humidity;BME280_pressure;Samples;Min_cycle;Max_cycle;Signal;HPM_P1;HPM_P2
2021/12/18 00:00:57;;;;;;;32.90;11.23;;;;;;;;;;5011187;28;20195;-67
2021/12/18 00:03:22;;;;;;;27.47;10.40;;;;;;;;;;4997441;28;20512;-67
2021/12/18 00:05:48;;;;;;;31.40;9.80;;;;;;;;;;5006797;28;20599;-67
2021/12/18 00:08:13;;;;;;;23.63;8.85;;;;;;;;;;4997840;28;20209;-67
2021/12/18 00:10:39;;;;;;;24.30;8.43;;;;;;;;;;5002849;28;20203;-67
2021/12/18 00:13:04;;;;;;;24.50;8.90;;;;;;;;;;4993284;28;20179;-67
2021/12/18 00:15:30;;;;;;;22.73;8.98;;;;;;;;;;5001942;28;20191;-67
2021/12/18 00:17:56;;;;;;;23.30;9.20;;;;;;;;;;4995197;28;20182;-67
2021/12/18 00:20:24;;;;;;;25.50;8.63;;;;;;;;;;5005531;28;20200;-67
2021/12/18 00:22:49;;;;;;;20.93;8.73;;;;;;;;;;4997950;28;20694;-67
2021/12/18 00:25:15;;;;;;;22.67;8.80;;;;;;;;;;5002759;28;20199;-67
2021/12/18 00:27:40;;;;;;;25.27;9.23;;;;;;;;;;4999240;28;20194;-67
2021/12/18 00:30:08;;;;;;;20.47;8.30;;;;;;;;;;5005089;28;20189;-67
2021/12/18 00:32:34;;;;;;;19.90;8.70;;;;;;;;;;5006289;28;20226;-67
2021/12/18 00:34:59;;;;;;;19.70;8.10;;;;;;;;;;4996069;28;20673;-67
2021/12/18 00:37:24;;;;;;;23.17;8.63;;;;;;;;;;5009262;28;20186;-67
2021/12/18 00:39:58;;;;;;;26.63;9.13;;;;;;;;;;4997535;28;20219;-67
2021/12/18 00:45:14;;;;;;;21.57;8.57;;;;;;;;;;4995314;28;20194;-68
2021/12/18 00:47:41;;;;;;;23.47;8.97;;;;;;;;;;5003829;28;20199;-68
2021/12/18 00:50:09;;;;;;;22.50;8.53;;;;;;;;;;4997941;28;20282;-67
2021/12/18 00:52:34;;;;;;;21.90;9.03;;;;;;;;;;5006523;28;20183;-67
2021/12/18 00:55:00;;;;;;;20.83;8.50;;;;;;;;;;4997232;28;20217;-67
2021/12/18 00:57:25;;;;;;;24.93;9.20;;;;;;;;;;5003498;28;20195;-67
2021/12/18 00:59:53;;;;;;;28.40;10.23;;;;;;;;;;5004397;28;20624;-67
2021/12/18 01:02:19;;;;;;;26.33;9.83;;;;;;;;;;5009460;28;20205;-67
2021/12/18 01:04:44;;;;;;;23.57;9.60;;;;;;;;;;4999428;28;20639;-67
2021/12/18 01:07:10;;;;;;;26.27;9.60;;;;;;;;;;5005091;28;20179;-67
2021/12/18 01:12:24;;;;;;;24.25;9.35;;;;;;;;;;5003391;28;20277;-67
2021/12/18 01:15:14;;;;;;;25.77;8.68;;;;;;;;;;5002645;28;20290;-68
2021/12/18 01:23:09;;;;;;;24.13;8.30;;;;;;;;;;5012837;28;20654;-67
2021/12/18 01:25:35;;;;;;;27.93;9.40;;;;;;;;;;4998030;28;20242;-67
2021/12/18 01:28:00;;;;;;;20.63;8.68;;;;;;;;;;5003138;28;20541;-67
2021/12/18 01:30:26;;;;;;;21.10;7.97;;;;;;;;;;5007649;28;20223;-67
2021/12/18 01:32:51;;;;;;;22.73;8.17;;;;;;;;;;4997405;28;20197;-67
2021/12/18 01:35:17;;;;;;;19.00;6.90;;;;;;;;;;5005992;28;20198;-67
2021/12/18 01:37:44;;;;;;;21.33;7.68;;;;;;;;;;4996619;28;20554;-67
2021/12/18 01:40:11;;;;;;;17.33;6.97;;;;;;;;;;5004269;28;20194;-68
2021/12/18 01:43:22;;;;;;;21.33;7.20;;;;;;;;;;4998940;28;20203;-68
2021/12/18 01:53:12;;;;;;;19.00;7.30;;;;;;;;;;4995912;28;20201;-67
2021/12/18 01:55:40;;;;;;;16.37;6.70;;;;;;;;;;5006408;28;20198;-67
2021/12/18 01:58:07;;;;;;;17.77;6.30;;;;;;;;;;4998283;28;20194;-67
2021/12/18 02:00:40;;;;;;;18.43;6.73;;;;;;;;;;5007144;28;20605;-67
2021/12/18 02:03:06;;;;;;;20.73;6.50;;;;;;;;;;4999604;28;20569;-67
2021/12/18 02:05:32;;;;;;;21.13;7.07;;;;;;;;;;4998407;28;20264;-67
2021/12/18 02:07:58;;;;;;;12.17;5.30;;;;;;;;;;4992537;28;20629;-67
2021/12/18 02:10:27;;;;;;;13.30;4.87;;;;;;;;;;5008132;28;20194;-67
2021/12/18 02:20:51;;;;;;;19.63;6.03;;;;;;;;;;5003728;28;20206;-67
2021/12/18 02:23:18;;;;;;;19.87;6.30;;;;;;;;;;4994474;28;20222;-67
2021/12/18 02:25:44;;;;;;;16.67;5.73;;;;;;;;;;5005626;28;20179;-67
2021/12/18 02:28:28;;;;;;;15.70;5.70;;;;;;;;;;5005901;28;20195;-67
2021/12/18 02:30:56;;;;;;;15.43;5.03;;;;;;;;;;4995580;28;20182;-67
2021/12/18 02:33:23;;;;;;;15.30;5.30;;;;;;;;;;5003087;28;20569;-67
2021/12/18 02:35:50;;;;;;;13.93;5.30;;;;;;;;;;4995032;28;20206;-67
2021/12/18 02:38:27;;;;;;;11.33;4.77;;;;;;;;;;5003523;28;20186;-67
2021/12/18 02:41:05;;;;;;;11.60;4.10;;;;;;;;;;4994425;28;20214;-67
2021/12/18 02:43:39;;;;;;;10.37;4.37;;;;;;;;;;5003308;28;20202;-67
2021/12/18 02:46:08;;;;;;;11.50;4.33;;;;;;;;;;4996509;28;20210;-67
2021/12/18 02:48:36;;;;;;;10.93;4.20;;;;;;;;;;4997600;28;20183;-67
2021/12/18 02:51:04;;;;;;;8.93;3.77;;;;;;;;;;4995239;28;20188;-67
2021/12/18 02:53:29;;;;;;;8.67;3.20;;;;;;;;;;5009627;28;20199;-67
2021/12/18 02:55:57;;;;;;;10.37;4.17;;;;;;;;;;4996268;28;20199;-67
2021/12/18 02:58:23;;;;;;;9.07;3.43;;;;;;;;;;5011793;28;20203;-67
2021/12/18 03:00:48;;;;;;;10.20;3.93;;;;;;;;;;4998934;28;20183;-68
2021/12/18 03:03:15;;;;;;;11.87;4.13;;;;;;;;;;5007083;28;20625;-68
2021/12/18 03:05:50;;;;;;;13.20;3.40;;;;;;;;;;4995829;28;20218;-67
2021/12/18 03:08:23;;;;;;;13.97;4.17;;;;;;;;;;5006354;28;20707;-67
2021/12/18 03:22:13;;;;;;;10.10;3.80;;;;;;;;;;5005085;28;20195;-67
2021/12/18 03:24:28;;;;;;;12.70;4.17;;;;;;;;;;5003552;28;20223;-67
2021/12/18 03:26:53;;;;;;;14.47;4.37;;;;;;;;;;5007899;28;20209;-68
2021/12/18 03:29:18;;;;;;;15.93;4.37;;;;;;;;;;5007919;28;20699;-67
2021/12/18 03:31:44;;;;;;;15.90;4.63;;;;;;;;;;4992483;28;20337;-67
2021/12/18 03:34:09;;;;;;;12.63;4.10;;;;;;;;;;5006086;28;20575;-67
2021/12/18 03:36:34;;;;;;;13.60;4.37;;;;;;;;;;5009183;28;20277;-67
2021/12/18 03:39:00;;;;;;;14.07;4.07;;;;;;;;;;4996281;28;20279;-67
2021/12/18 03:41:25;;;;;;;14.17;4.23;;;;;;;;;;5006337;28;20194;-67
2021/12/18 03:43:51;;;;;;;9.63;3.90;;;;;;;;;;4992870;28;20278;-67
2021/12/18 03:46:16;;;;;;;7.93;2.87;;;;;;;;;;5002622;28;20191;-67
2021/12/18 03:48:41;;;;;;;7.80;3.03;;;;;;;;;;4997095;28;20630;-67
2021/12/18 03:51:07;;;;;;;5.40;2.60;;;;;;;;;;5005924;28;20634;-67
2021/12/18 03:53:32;;;;;;;7.67;2.03;;;;;;;;;;4997189;28;20189;-67
2021/12/18 03:55:58;;;;;;;5.83;2.30;;;;;;;;;;5008198;28;20229;-67
2021/12/18 03:58:23;;;;;;;5.63;2.00;;;;;;;;;;5000435;28;20218;-67
2021/12/18 04:00:48;;;;;;;4.53;1.70;;;;;;;;;;5006236;28;20245;-67
2021/12/18 04:03:14;;;;;;;7.53;2.07;;;;;;;;;;5000350;28;20211;-67
2021/12/18 04:05:39;;;;;;;20.87;2.63;;;;;;;;;;5005221;28;20261;-67
2021/12/18 04:08:11;;;;;;;8.97;2.47;;;;;;;;;;5012033;28;20186;-67
2021/12/18 04:10:38;;;;;;;7.13;2.60;;;;;;;;;;4994822;28;20639;-67
2021/12/18 04:13:06;;;;;;;10.80;3.30;;;;;;;;;;5006344;28;20289;-67
2021/12/18 04:15:31;;;;;;;11.33;3.33;;;;;;;;;;4995898;28;20195;-67
2021/12/18 04:17:57;;;;;;;14.17;3.67;;;;;;;;;;5008908;28;20193;-67
2021/12/18 04:20:24;;;;;;;13.70;3.17;;;;;;;;;;4997994;28;20646;-67
2021/12/18 04:22:49;;;;;;;6.30;2.47;;;;;;;;;;5011051;28;20234;-67
2021/12/18 04:25:14;;;;;;;9.57;2.50;;;;;;;;;;4997716;28;20198;-67
2021/12/18 04:27:40;;;;;;;18.13;2.07;;;;;;;;;;4994873;28;20278;-67
2021/12/18 04:30:06;;;;;;;6.13;2.37;;;;;;;;;;4998980;28;20199;-67
2021/12/18 04:32:31;;;;;;;9.13;1.73;;;;;;;;;;5002198;28;20253;-67
2021/12/18 04:34:56;;;;;;;20.73;2.60;;;;;;;;;;4997396;28;20252;-67
2021/12/18 04:37:23;;;;;;;20.33;2.20;;;;;;;;;;5013589;28;20197;-67
2021/12/18 04:39:48;;;;;;;6.87;2.10;;;;;;;;;;5005911;28;20278;-67
2021/12/18 04:42:14;;;;;;;12.87;2.53;;;;;;;;;;5002882;28;20314;-67
2021/12/18 04:44:39;;;;;;;19.07;2.17;;;;;;;;;;5006414;28;20187;-67
2021/12/18 04:47:05;;;;;;;15.73;2.33;;;;;;;;;;4999853;28;20619;-67
2021/12/18 04:49:30;;;;;;;11.47;2.30;;;;;;;;;;5005488;28;20640;-67
2021/12/18 04:51:55;;;;;;;13.73;2.33;;;;;;;;;;4999129;28;20562;-67
2021/12/18 04:54:21;;;;;;;10.80;2.40;;;;;;;;;;5001880;28;20215;-67
2021/12/18 04:56:46;;;;;;;4.70;1.90;;;;;;;;;;4999983;28;20197;-67
2021/12/18 04:59:12;;;;;;;3.47;1.43;;;;;;;;;;5010807;28;20190;-67
2021/12/18 05:01:39;;;;;;;4.30;1.50;;;;;;;;;;5002407;28;20199;-67
2021/12/18 05:04:09;;;;;;;10.97;1.97;;;;;;;;;;4999447;28;20215;-67
2021/12/18 05:06:36;;;;;;;4.20;2.00;;;;;;;;;;4995504;28;20190;-67
2021/12/18 05:09:03;;;;;;;3.37;1.47;;;;;;;;;;5009301;28;20193;-67
2021/12/18 05:11:28;;;;;;;5.90;1.73;;;;;;;;;;5002489;28;20221;-67
2021/12/18 05:13:54;;;;;;;3.80;1.60;;;;;;;;;;5002998;28;20182;-67
2021/12/18 05:16:19;;;;;;;2.77;1.20;;;;;;;;;;5001191;28;20183;-67
2021/12/18 05:18:44;;;;;;;7.37;1.40;;;;;;;;;;4999131;28;20189;-67
2021/12/18 05:21:10;;;;;;;7.40;1.63;;;;;;;;;;5006031;28;20187;-67
2021/12/18 05:23:37;;;;;;;7.73;1.70;;;;;;;;;;4998394;28;20289;-67
2021/12/18 05:26:02;;;;;;;10.57;2.10;;;;;;;;;;5007106;28;20237;-67
2021/12/18 05:28:27;;;;;;;12.30;1.80;;;;;;;;;;5000278;28;20592;-67
2021/12/18 05:30:53;;;;;;;3.67;1.60;;;;;;;;;;5002078;28;20191;-67
2021/12/18 05:33:18;;;;;;;7.90;1.73;;;;;;;;;;5001808;28;20181;-67
2021/12/18 05:35:43;;;;;;;3.97;1.53;;;;;;;;;;5006329;28;20178;-67
2021/12/18 05:38:09;;;;;;;4.53;1.20;;;;;;;;;;4991612;28;20236;-67
2021/12/18 05:40:37;;;;;;;8.30;1.40;;;;;;;;;;5003426;28;20191;-67
2021/12/18 05:43:03;;;;;;;3.60;1.00;;;;;;;;;;4997151;28;20256;-68
2021/12/18 05:45:29;;;;;;;2.57;1.40;;;;;;;;;;5004941;28;20239;-67
2021/12/18 05:47:54;;;;;;;5.17;1.40;;;;;;;;;;5007750;28;20198;-67
2021/12/18 05:50:20;;;;;;;3.20;1.50;;;;;;;;;;4992543;28;20218;-67
2021/12/18 05:52:47;;;;;;;3.67;1.60;;;;;;;;;;4996457;28;20195;-67
2021/12/18 05:55:15;;;;;;;5.93;1.30;;;;;;;;;;4994085;28;20241;-67
2021/12/18 05:57:41;;;;;;;3.77;1.23;;;;;;;;;;5004817;28;20692;-67
2021/12/18 06:00:08;;;;;;;3.63;1.67;;;;;;;;;;4994943;28;20194;-67
2021/12/18 06:02:33;;;;;;;1.70;0.80;;;;;;;;;;5006968;28;20649;-67
2021/12/18 06:04:58;;;;;;;2.83;1.20;;;;;;;;;;4994938;28;20185;-67
2021/12/18 06:07:32;;;;;;;2.77;1.10;;;;;;;;;;5005350;28;20261;-67
2021/12/18 06:10:00;;;;;;;5.40;1.23;;;;;;;;;;5002616;28;20664;-67
2021/12/18 06:12:25;;;;;;;5.37;1.20;;;;;;;;;;5008081;28;20179;-67
2021/12/18 06:14:51;;;;;;;2.43;1.20;;;;;;;;;;4997132;28;23852;-67
2021/12/18 06:17:17;;;;;;;2.10;1.10;;;;;;;;;;5004944;28;20194;-67
2021/12/18 06:19:42;;;;;;;5.37;1.53;;;;;;;;;;5002306;28;20283;-67
2021/12/18 06:22:08;;;;;;;3.10;1.40;;;;;;;;;;4995125;28;20602;-67
2021/12/18 06:24:33;;;;;;;4.53;1.60;;;;;;;;;;5015435;28;20673;-67
2021/12/18 06:26:58;;;;;;;2.80;1.50;;;;;;;;;;5000456;28;20497;-67
2021/12/18 06:29:24;;;;;;;8.17;1.80;;;;;;;;;;5021994;28;20204;-67
2021/12/18 06:31:49;;;;;;;6.37;2.00;;;;;;;;;;5000509;28;20186;-67
2021/12/18 06:34:16;;;;;;;4.70;2.00;;;;;;;;;;5013581;28;20183;-67
2021/12/18 06:36:41;;;;;;;4.47;1.50;;;;;;;;;;4995505;28;20186;-67
2021/12/18 06:39:07;;;;;;;3.70;1.90;;;;;;;;;;5012600;28;20193;-67
2021/12/18 06:41:33;;;;;;;2.87;1.33;;;;;;;;;;4997693;28;20175;-67
2021/12/18 06:43:58;;;;;;;3.90;1.20;;;;;;;;;;5008457;28;20224;-67
2021/12/18 06:46:23;;;;;;;2.27;1.30;;;;;;;;;;5002243;28;21623;-67
2021/12/18 06:48:49;;;;;;;3.30;1.77;;;;;;;;;;5013962;28;20568;-67
2021/12/18 06:51:18;;;;;;;3.40;1.60;;;;;;;;;;5007469;28;20213;-67
2021/12/18 06:53:43;;;;;;;4.50;1.80;;;;;;;;;;5003674;28;20289;-67
2021/12/18 06:56:09;;;;;;;3.33;1.73;;;;;;;;;;5008409;28;20293;-67
2021/12/18 06:58:34;;;;;;;3.70;1.53;;;;;;;;;;5002816;28;20654;-67
2021/12/18 07:00:59;;;;;;;5.43;1.80;;;;;;;;;;5009944;28;20178;-67
2021/12/18 07:03:26;;;;;;;4.90;2.30;;;;;;;;;;5005136;28;20199;-67
2021/12/18 07:05:51;;;;;;;4.63;1.97;;;;;;;;;;5013318;28;20247;-67
2021/12/18 07:08:16;;;;;;;5.87;2.30;;;;;;;;;;5003433;28;20654;-67
2021/12/18 07:10:43;;;;;;;6.73;1.87;;;;;;;;;;5012230;28;20190;-67
2021/12/18 07:13:08;;;;;;;5.20;2.57;;;;;;;;;;4996332;28;20190;-66
2021/12/18 07:15:34;;;;;;;5.77;1.97;;;;;;;;;;5005658;28;20194;-67
2021/12/18 07:18:00;;;;;;;6.83;2.30;;;;;;;;;;4996858;28;20187;-67
2021/12/18 07:20:27;;;;;;;6.03;2.60;;;;;;;;;;5015559;28;20691;-67
2021/12/18 07:22:53;;;;;;;6.90;2.73;;;;;;;;;;5010303;28;20218;-67
2021/12/18 07:25:18;;;;;;;4.27;2.17;;;;;;;;;;5005501;28;20200;-67
2021/12/18 07:27:44;;;;;;;5.17;2.47;;;;;;;;;;5008438;28;20508;-68
2021/12/18 07:30:10;;;;;;;9.00;3.07;;;;;;;;;;4998291;28;20214;-67
2021/12/18 07:32:37;;;;;;;9.13;3.27;;;;;;;;;;5003398;28;20727;-67
2021/12/18 07:35:03;;;;;;;8.80;3.23;;;;;;;;;;5005530;28;20189;-67
2021/12/18 07:37:28;;;;;;;9.87;3.70;;;;;;;;;;5007985;28;20270;-67
2021/12/18 07:39:54;;;;;;;11.17;3.87;;;;;;;;;;5000778;28;20623;-67
2021/12/18 07:42:20;;;;;;;8.40;3.30;;;;;;;;;;5005114;28;20703;-67
2021/12/18 07:44:45;;;;;;;14.10;4.10;;;;;;;;;;4997267;28;20197;-68
2021/12/18 07:47:11;;;;;;;9.80;3.50;;;;;;;;;;5004419;28;20187;-68
2021/12/18 07:49:37;;;;;;;9.27;3.40;;;;;;;;;;4995355;28;20270;-67
2021/12/18 07:52:04;;;;;;;13.33;4.03;;;;;;;;;;5008468;28;20585;-68
2021/12/18 07:54:30;;;;;;;11.07;3.90;;;;;;;;;;5007110;28;20195;-68
2021/12/18 07:56:56;;;;;;;11.67;3.73;;;;;;;;;;4996997;28;20198;-68
2021/12/18 07:59:21;;;;;;;10.17;3.53;;;;;;;;;;5004376;28;20195;-68
2021/12/18 08:01:47;;;;;;;13.63;4.30;;;;;;;;;;4997621;28;20579;-68
2021/12/18 08:04:12;;;;;;;10.83;3.53;;;;;;;;;;5002478;28;20682;-67
2021/12/18 08:06:38;;;;;;;9.10;2.73;;;;;;;;;;4998014;28;20197;-68
2021/12/18 08:09:03;;;;;;;9.23;2.83;;;;;;;;;;5017040;28;20213;-67
2021/12/18 08:11:29;;;;;;;7.90;2.63;;;;;;;;;;4994184;28;20581;-67
2021/12/18 08:13:54;;;;;;;6.57;2.30;;;;;;;;;;5010163;28;20237;-67
2021/12/18 08:16:19;;;;;;;9.20;2.20;;;;;;;;;;4998898;28;20190;-68
2021/12/18 08:18:45;;;;;;;7.17;2.43;;;;;;;;;;5005726;28;20649;-69
2021/12/18 08:21:10;;;;;;;7.77;2.70;;;;;;;;;;4998007;28;20655;-68
2021/12/18 08:23:36;;;;;;;9.73;2.90;;;;;;;;;;5010396;28;20223;-67
2021/12/18 08:26:01;;;;;;;8.57;3.47;;;;;;;;;;5005659;28;20278;-68
2021/12/18 08:28:27;;;;;;;15.33;4.13;;;;;;;;;;4997395;28;20456;-68
2021/12/18 08:30:52;;;;;;;8.77;3.17;;;;;;;;;;5009976;28;20216;-68
2021/12/18 08:33:17;;;;;;;7.90;3.07;;;;;;;;;;4999733;28;20630;-68
2021/12/18 08:35:43;;;;;;;8.47;3.40;;;;;;;;;;5004313;28;20200;-67
2021/12/18 08:38:08;;;;;;;8.63;2.90;;;;;;;;;;4998300;28;20276;-67
2021/12/18 08:40:35;;;;;;;8.70;2.60;;;;;;;;;;5006277;28;20180;-67
2021/12/18 08:43:01;;;;;;;8.20;2.93;;;;;;;;;;4997635;28;20269;-67
2021/12/18 08:45:27;;;;;;;7.53;2.27;;;;;;;;;;5009451;28;20684;-67
2021/12/18 08:47:52;;;;;;;6.27;2.07;;;;;;;;;;4994326;28;20194;-67
2021/12/18 08:50:21;;;;;;;6.57;2.23;;;;;;;;;;5000071;28;20436;-67
2021/12/18 08:52:48;;;;;;;6.13;2.10;;;;;;;;;;4996074;28;20275;-67
2021/12/18 08:55:15;;;;;;;5.13;1.77;;;;;;;;;;5013268;28;20198;-67
2021/12/18 08:57:41;;;;;;;5.30;2.10;;;;;;;;;;5004893;28;20292;-67
2021/12/18 09:00:10;;;;;;;5.77;2.03;;;;;;;;;;5000573;28;20237;-67
2021/12/18 09:02:40;;;;;;;5.73;2.27;;;;;;;;;;5005598;28;20214;-67
2021/12/18 09:05:07;;;;;;;6.50;1.70;;;;;;;;;;5001549;28;20194;-67
2021/12/18 09:07:39;;;;;;;3.83;2.10;;;;;;;;;;5079688;27;20894;-67
2021/12/18 09:10:07;;;;;;;7.97;1.93;;;;;;;;;;5056706;28;20193;-67
2021/12/18 09:12:33;;;;;;;4.83;1.97;;;;;;;;;;5063930;28;20177;-67
2021/12/18 09:14:58;;;;;;;6.70;2.47;;;;;;;;;;5055859;28;20191;-67
2021/12/18 09:17:24;;;;;;;7.63;2.67;;;;;;;;;;5061776;28;20176;-67
2021/12/18 09:19:50;;;;;;;7.07;2.43;;;;;;;;;;5056995;28;20599;-67
2021/12/18 09:22:16;;;;;;;5.77;2.70;;;;;;;;;;5063786;28;20185;-67
2021/12/18 09:24:42;;;;;;;6.37;2.80;;;;;;;;;;5055337;28;20193;-68
2021/12/18 09:27:07;;;;;;;6.23;2.67;;;;;;;;;;5060516;28;20255;-68
2021/12/18 09:29:33;;;;;;;6.70;3.23;;;;;;;;;;5056437;28;20193;-68
2021/12/18 09:31:58;;;;;;;6.37;2.97;;;;;;;;;;5046234;28;20189;-68
2021/12/18 09:34:26;;;;;;;6.07;3.03;;;;;;;;;;5069425;28;20177;-68
2021/12/18 09:36:52;;;;;;;5.37;2.87;;;;;;;;;;5055594;28;20185;-68
2021/12/18 09:39:17;;;;;;;5.03;3.03;;;;;;;;;;5065395;28;20231;-68
2021/12/18 09:41:46;;;;;;;4.37;2.93;;;;;;;;;;5053206;28;20275;-68
2021/12/18 09:44:12;;;;;;;11.80;3.50;;;;;;;;;;5065745;28;20191;-68
2021/12/18 09:46:37;;;;;;;5.87;2.83;;;;;;;;;;5055583;28;20213;-68
2021/12/18 09:49:03;;;;;;;7.13;3.03;;;;;;;;;;5065682;28;20193;-68
2021/12/18 09:51:28;;;;;;;5.00;2.40;;;;;;;;;;5054930;28;20188;-68
2021/12/18 09:53:57;;;;;;;5.37;2.30;;;;;;;;;;5060380;28;20222;-68
2021/12/18 09:56:24;;;;;;;5.53;2.70;;;;;;;;;;5054563;28;20180;-68
2021/12/18 09:58:50;;;;;;;3.10;2.37;;;;;;;;;;5061466;28;20181;-68
2021/12/18 10:01:16;;;;;;;4.50;2.40;;;;;;;;;;5058569;28;20268;-68
2021/12/18 10:04:02;;;;;;;3.73;2.20;;;;;;;;;;5059239;28;20862;-68
2021/12/18 10:06:41;;;;;;;5.60;2.57;;;;;;;;;;5058931;28;20695;-68
2021/12/18 10:09:16;;;;;;;4.73;2.60;;;;;;;;;;5061174;28;20180;-68
2021/12/18 10:12:06;;;;;;;3.07;2.27;;;;;;;;;;5063950;28;20188;-68
2021/12/18 10:15:00;;;;;;;3.70;2.07;;;;;;;;;;5054051;28;20201;-68
2021/12/18 10:17:37;;;;;;;4.27;2.50;;;;;;;;;;5044451;28;20205;-68
2021/12/18 10:20:23;;;;;;;3.70;2.30;;;;;;;;;;5042239;28;20223;-68
2021/12/18 10:22:58;;;;;;;3.60;2.00;;;;;;;;;;5038773;28;20178;-69
2021/12/18 10:25:28;;;;;;;2.90;2.07;;;;;;;;;;5047922;28;20181;-68
2021/12/18 10:28:02;;;;;;;3.23;1.77;;;;;;;;;;5037232;28;20184;-67
2021/12/18 10:30:27;;;;;;;3.57;1.87;;;;;;;;;;5043369;28;20198;-67
2021/12/18 10:33:04;;;;;;;3.53;1.80;;;;;;;;;;5043785;28;20192;-68
2021/12/18 10:35:48;;;;;;;3.47;2.53;;;;;;;;;;5048378;28;20208;-68
2021/12/18 10:38:47;;;;;;;3.50;2.07;;;;;;;;;;5042402;28;20272;-68
2021/12/18 10:41:34;;;;;;;2.53;1.90;;;;;;;;;;5048754;28;20185;-67
2021/12/18 10:44:08;;;;;;;3.33;1.97;;;;;;;;;;5032762;28;20236;-68
2021/12/18 10:46:37;;;;;;;3.53;2.30;;;;;;;;;;5038127;28;20214;-68
2021/12/18 10:49:13;;;;;;;3.63;2.03;;;;;;;;;;5041684;28;20537;-68
2021/12/18 10:51:40;;;;;;;4.43;2.10;;;;;;;;;;5044363;28;20549;-68
2021/12/18 10:54:09;;;;;;;4.97;3.00;;;;;;;;;;5040543;28;20194;-68
2021/12/18 10:56:38;;;;;;;3.67;2.40;;;;;;;;;;5046069;28;20207;-68
2021/12/18 10:59:17;;;;;;;6.10;3.00;;;;;;;;;;5044889;28;20684;-68
2021/12/18 11:01:43;;;;;;;4.22;2.80;;;;;;;;;;5041065;28;20722;-68
2021/12/18 11:04:08;;;;;;;3.85;2.17;;;;;;;;;;5047351;28;20189;-68
2021/12/18 11:06:38;;;;;;;3.43;1.90;;;;;;;;;;5038715;28;20728;-68
2021/12/18 11:09:15;;;;;;;3.87;2.57;;;;;;;;;;5040624;28;20663;-68
2021/12/18 11:14:19;;;;;;;4.07;2.43;;;;;;;;;;5044420;28;20198;-68
2021/12/18 11:16:48;;;;;;;3.20;2.13;;;;;;;;;;5036387;28;20514;-68
2021/12/18 11:19:16;;;;;;;4.10;2.30;;;;;;;;;;5043262;28;20242;-68
2021/12/18 11:21:44;;;;;;;4.10;2.25;;;;;;;;;;5036775;28;20641;-68
2021/12/18 11:24:10;;;;;;;3.63;2.50;;;;;;;;;;5045038;28;20219;-68
2021/12/18 11:27:16;;;;;;;5.00;2.40;;;;;;;;;;5037796;28;20286;-68
2021/12/18 11:29:56;;;;;;;4.97;2.93;;;;;;;;;;5043949;28;20239;-68
2021/12/18 11:32:24;;;;;;;5.93;3.30;;;;;;;;;;5035152;28;20246;-68
2021/12/18 11:34:51;;;;;;;5.43;3.23;;;;;;;;;;5046427;28;20212;-68
2021/12/18 11:37:18;;;;;;;5.63;3.17;;;;;;;;;;5036735;28;20243;-68
2021/12/18 11:39:45;;;;;;;5.43;3.37;;;;;;;;;;5049557;28;20193;-68
2021/12/18 11:42:12;;;;;;;4.60;3.00;;;;;;;;;;5041022;28;20276;-68
2021/12/18 11:44:54;;;;;;;6.63;3.73;;;;;;;;;;5042940;28;20177;-68
2021/12/18 11:47:37;;;;;;;7.37;3.67;;;;;;;;;;5034975;28;20619;-68
2021/12/18 11:50:21;;;;;;;4.47;3.37;;;;;;;;;;5047353;28;20193;-68
2021/12/18 11:52:52;;;;;;;5.10;3.20;;;;;;;;;;5027409;28;20185;-68
2021/12/18 11:55:18;;;;;;;6.13;3.20;;;;;;;;;;5037999;28;23592;-69
2021/12/18 11:57:49;;;;;;;7.07;3.37;;;;;;;;;;5031089;28;20195;-69
2021/12/18 12:00:18;;;;;;;4.27;3.00;;;;;;;;;;5036675;28;20782;-69
2021/12/18 12:02:44;;;;;;;7.70;3.30;;;;;;;;;;5027183;28;20277;-69
2021/12/18 12:05:10;;;;;;;5.13;3.57;;;;;;;;;;5040420;28;20630;-69
2021/12/18 12:07:37;;;;;;;6.67;4.17;;;;;;;;;;5037443;28;20262;-68
2021/12/18 12:12:47;;;;;;;5.50;3.67;;;;;;;;;;5035133;28;20304;-68
2021/12/18 12:15:15;;;;;;;7.83;4.40;;;;;;;;;;5028583;28;20201;-68
2021/12/18 12:18:01;;;;;;;6.47;4.37;;;;;;;;;;5034938;28;20182;-68
2021/12/18 12:20:57;;;;;;;7.20;4.33;;;;;;;;;;5027791;28;20656;-68
2021/12/18 12:23:22;;;;;;;7.43;4.23;;;;;;;;;;5029078;28;20208;-68
2021/12/18 12:25:51;;;;;;;8.60;4.13;;;;;;;;;;5034447;28;20205;-67
2021/12/18 12:28:22;;;;;;;6.07;3.93;;;;;;;;;;5045134;28;20231;-68
2021/12/18 12:30:58;;;;;;;7.47;4.47;;;;;;;;;;5033016;28;20182;-68
2021/12/18 12:33:28;;;;;;;8.60;4.20;;;;;;;;;;5036317;28;20272;-68
2021/12/18 12:36:12;;;;;;;16.05;6.10;;;;;;;;;;5031253;28;20264;-68
2021/12/18 12:38:42;;;;;;;7.50;4.50;;;;;;;;;;5037877;28;20629;-68
2021/12/18 12:41:27;;;;;;;8.93;4.50;;;;;;;;;;4781291;28;10000922;-68
2021/12/18 12:43:54;;;;;;;11.73;4.20;;;;;;;;;;5034171;28;20409;-68
2021/12/18 12:46:20;;;;;;;8.83;4.60;;;;;;;;;;5024367;28;20647;-68
2021/12/18 12:49:07;;;;;;;11.60;4.60;;;;;;;;;;5038394;28;20185;-69
2021/12/18 12:51:58;;;;;;;13.20;4.85;;;;;;;;;;5022625;28;20736;-68
2021/12/18 12:54:51;;;;;;;8.68;4.85;;;;;;;;;;5039440;28;20240;-68
2021/12/18 12:57:22;;;;;;;9.52;5.13;;;;;;;;;;5021841;28;20624;-68
2021/12/18 13:00:15;;;;;;;13.90;5.57;;;;;;;;;;5038258;28;20190;-68
2021/12/18 13:02:54;;;;;;;9.38;4.90;;;;;;;;;;5026461;28;20224;-68
2021/12/18 13:05:21;;;;;;;10.02;5.38;;;;;;;;;;5035690;28;20232;-68
2021/12/18 13:07:54;;;;;;;10.57;5.40;;;;;;;;;;5035064;28;20221;-68
2021/12/18 13:10:32;;;;;;;11.88;5.55;;;;;;;;;;5040711;28;20273;-68
2021/12/18 13:13:05;;;;;;;10.52;5.38;;;;;;;;;;5030728;28;20193;-68
2021/12/18 13:15:55;;;;;;;10.77;5.88;;;;;;;;;;5043759;28;20708;-68
2021/12/18 13:18:26;;;;;;;12.33;5.97;;;;;;;;;;5031974;28;20305;-68
2021/12/18 13:20:55;;;;;;;9.10;5.32;;;;;;;;;;5038795;28;20718;-68
2021/12/18 13:23:23;;;;;;;15.23;6.47;;;;;;;;;;5034369;28;20558;-68
2021/12/18 13:25:51;;;;;;;12.00;6.37;;;;;;;;;;5038057;28;20251;-68
2021/12/18 13:28:17;;;;;;;15.05;6.60;;;;;;;;;;5033505;28;20227;-68
2021/12/18 13:30:42;;;;;;;17.93;6.73;;;;;;;;;;5033716;28;20289;-68
2021/12/18 13:33:08;;;;;;;12.90;6.50;;;;;;;;;;5034847;28;20318;-68
2021/12/18 13:35:38;;;;;;;9.77;6.18;;;;;;;;;;5034707;28;20239;-68
2021/12/18 13:38:10;;;;;;;11.47;6.20;;;;;;;;;;5032702;28;20186;-67
2021/12/18 13:40:47;;;;;;;16.25;7.20;;;;;;;;;;5034623;28;20197;-67
2021/12/18 13:43:17;;;;;;;9.33;6.83;;;;;;;;;;5030969;28;20212;-68
2021/12/18 13:45:54;;;;;;;15.60;7.43;;;;;;;;;;5037997;28;20551;-67
2021/12/18 13:48:23;;;;;;;13.98;6.85;;;;;;;;;;5028751;28;20205;-68
2021/12/18 13:51:10;;;;;;;13.13;6.65;;;;;;;;;;5042607;28;20839;-68
2021/12/18 13:53:50;;;;;;;13.00;7.70;;;;;;;;;;5031656;28;20292;-68
2021/12/18 13:56:17;;;;;;;13.40;7.47;;;;;;;;;;5045518;28;20545;-68
2021/12/18 13:58:43;;;;;;;15.67;7.93;;;;;;;;;;5039575;28;20637;-67
2021/12/18 14:01:22;;;;;;;13.77;7.63;;;;;;;;;;5046441;28;20181;-67
2021/12/18 14:03:55;;;;;;;14.65;8.40;;;;;;;;;;5029037;28;20239;-67
2021/12/18 14:06:33;;;;;;;14.75;8.07;;;;;;;;;;5043650;28;20237;-67
2021/12/18 14:09:03;;;;;;;14.90;8.40;;;;;;;;;;5031319;28;20252;-67
2021/12/18 14:11:38;;;;;;;15.37;7.77;;;;;;;;;;5043495;28;20190;-67
2021/12/18 14:14:09;;;;;;;14.45;8.05;;;;;;;;;;5046989;28;20597;-67
2021/12/18 14:16:36;;;;;;;14.10;8.00;;;;;;;;;;5039744;28;20185;-67
2021/12/18 14:19:05;;;;;;;14.20;7.60;;;;;;;;;;5045687;28;20223;-67
2021/12/18 14:21:39;;;;;;;14.40;8.13;;;;;;;;;;5040412;28;20189;-67
2021/12/18 14:24:06;;;;;;;16.40;8.30;;;;;;;;;;5046713;28;20185;-67
2021/12/18 14:26:32;;;;;;;16.52;8.20;;;;;;;;;;5040822;28;20209;-67
2021/12/18 14:29:15;;;;;;;17.80;8.67;;;;;;;;;;5050739;28;20275;-69
2021/12/18 14:31:46;;;;;;;15.27;8.03;;;;;;;;;;5037948;28;20190;-69
2021/12/18 14:34:24;;;;;;;16.20;9.27;;;;;;;;;;5050429;28;20192;-68
2021/12/18 14:37:02;;;;;;;19.10;8.47;;;;;;;;;;5037978;28;20200;-67
2021/12/18 14:39:49;;;;;;;18.67;8.40;;;;;;;;;;5045908;28;20181;-67
2021/12/18 14:42:14;;;;;;;17.47;8.70;;;;;;;;;;5037004;28;20597;-67
2021/12/18 14:44:50;;;;;;;17.80;8.93;;;;;;;;;;5043569;28;20201;-68
2021/12/18 14:47:19;;;;;;;17.87;9.07;;;;;;;;;;5034940;28;20278;-67
2021/12/18 14:50:22;;;;;;;15.70;8.77;;;;;;;;;;5040242;28;20181;-68
2021/12/18 14:53:09;;;;;;;15.93;9.07;;;;;;;;;;5032131;28;20200;-67
2021/12/18 14:55:42;;;;;;;21.90;9.43;;;;;;;;;;5041744;28;20264;-67
2021/12/18 14:58:11;;;;;;;17.43;9.03;;;;;;;;;;4342825;28;10000708;-67
2021/12/18 15:01:01;;;;;;;17.73;9.70;;;;;;;;;;5043098;28;20219;-68
2021/12/18 15:03:39;;;;;;;15.30;9.20;;;;;;;;;;5036098;28;20217;-68
2021/12/18 15:06:20;;;;;;;16.57;9.97;;;;;;;;;;5043206;28;20228;-68
2021/12/18 15:09:09;;;;;;;17.37;9.53;;;;;;;;;;5035669;28;20189;-68
2021/12/18 15:11:46;;;;;;;19.50;10.07;;;;;;;;;;5043459;28;20232;-70
2021/12/18 15:14:14;;;;;;;21.77;11.03;;;;;;;;;;5034599;28;20196;-68
2021/12/18 15:16:41;;;;;;;19.40;9.67;;;;;;;;;;5046476;28;20242;-68
2021/12/18 15:19:19;;;;;;;22.47;10.70;;;;;;;;;;5035375;28;20540;-68
2021/12/18 15:21:47;;;;;;;20.70;10.85;;;;;;;;;;5041176;28;20189;-69
2021/12/18 15:24:13;;;;;;;19.03;10.30;;;;;;;;;;5049378;28;20238;-69
2021/12/18 15:26:41;;;;;;;18.97;8.73;;;;;;;;;;5042322;28;20213;-69
2021/12/18 15:29:10;;;;;;;18.47;10.40;;;;;;;;;;5036231;28;20535;-69
2021/12/18 15:31:36;;;;;;;17.97;9.00;;;;;;;;;;5039360;28;20200;-69